Time;durP1;ratioP1;P1;durP2;ratioP2;P2;SDS_P1;SDS_P2;PMS_P1;PMS_P2;Temp;Humidity;BMP_temperature;BMP_pressure;BME280_temperature;BME280_humidity;BME280_pressure;Samples;Min_cycle;Max_cycle;Signal;HPM_P1;HPM_P2
2021/09/26 00:02:21;;;;;;;7.18;2.90;;;;;;;14.91;100.00;100783.84;6412016;23;20044;-81
2021/09/26 00:04:51;;;;;;;4.65;2.90;;;;;;;14.74;100.00;100782.13;6400436;23;20215;-81
2021/09/26 00:07:22;;;;;;;5.07;3.08;;;;;;;14.65;100.00;100783.44;6400732;23;20407;-81
2021/09/26 00:09:52;;;;;;;5.18;2.67;;;;;;;14.73;100.00;100785.69;6400525;23;20005;-81
2021/09/26 00:12:22;;;;;;;5.03;2.83;;;;;;;14.66;100.00;100781.63;6400792;23;20008;-81
2021/09/26 00:14:53;;;;;;;4.50;2.70;;;;;;;14.62;100.00;100780.09;6375353;23;20016;-81
2021/09/26 00:17:24;;;;;;;7.43;2.35;;;;;;;14.59;100.00;100774.97;6400907;23;20005;-81
2021/09/26 00:19:54;;;;;;;5.38;2.45;;;;;;;14.49;100.00;100784.22;6400134;23;20009;-81
2021/09/26 00:22:24;;;;;;;3.80;2.72;;;;;;;14.50;100.00;100783.31;6400399;23;20024;-81
2021/09/26 00:24:55;;;;;;;4.50;2.70;;;;;;;14.46;100.00;100787.84;6400139;23;20083;-81
2021/09/26 00:27:26;;;;;;;4.53;2.67;;;;;;;14.46;100.00;100789.66;6408714;23;20236;-80
2021/09/26 00:29:59;;;;;;;5.22;2.85;;;;;;;14.42;100.00;100791.56;6402038;23;20441;-81
2021/09/26 00:32:33;;;;;;;3.92;2.47;;;;;;;14.36;100.00;100783.09;6410087;23;20024;-81
2021/09/26 00:35:04;;;;;;;3.15;2.33;;;;;;;14.35;100.00;100798.03;6376526;23;20433;-81
2021/09/26 00:37:36;;;;;;;5.22;2.50;;;;;;;14.38;100.00;100797.91;6399697;23;20028;-81
2021/09/26 00:40:07;;;;;;;4.22;2.42;;;;;;;14.34;100.00;100798.09;6412433;23;20318;-81
2021/09/26 00:42:39;;;;;;;4.65;2.40;;;;;;;14.27;100.00;100794.06;6400911;23;20015;-81
2021/09/26 00:45:10;;;;;;;5.22;2.65;;;;;;;14.19;100.00;100790.94;6398233;23;20376;-81
2021/09/26 00:47:41;;;;;;;5.45;2.45;;;;;;;14.25;100.00;100793.28;6400272;23;20013;-80
2021/09/26 00:50:12;;;;;;;4.22;2.50;;;;;;;14.26;100.00;100793.22;6373772;23;20012;-81
2021/09/26 00:52:46;;;;;;;3.63;2.65;;;;;;;14.25;100.00;100798.56;6375639;23;20012;-81
2021/09/26 00:55:18;;;;;;;5.38;3.20;;;;;;;14.35;100.00;100786.66;6402000;23;20081;-81
2021/09/26 00:57:48;;;;;;;4.65;2.58;;;;;;;14.27;100.00;100786.19;6374528;23;20515;-82
2021/09/26 01:00:20;;;;;;;3.40;2.50;;;;;;;14.30;100.00;100791.28;6400691;23;20016;-82
2021/09/26 01:02:50;;;;;;;4.53;3.10;;;;;;;14.29;100.00;100787.78;6399736;23;20463;-81
2021/09/26 01:05:25;;;;;;;6.47;3.65;;;;;;;14.33;100.00;100783.25;6412912;23;20028;-81
2021/09/26 01:08:31;;;;;;;4.70;3.45;;;;;;;14.24;100.00;100783.72;6412333;23;20001;-82
2021/09/26 01:11:15;;;;;;;5.57;2.80;;;;;;;14.22;100.00;100775.88;6360395;23;20017;-81
2021/09/26 01:14:25;;;;;;;4.22;3.00;;;;;;;14.20;100.00;100776.88;6402133;23;20005;-81
2021/09/26 01:17:08;;;;;;;5.45;3.20;;;;;;;14.15;100.00;100778.84;6400535;23;20005;-82
2021/09/26 01:19:41;;;;;;;5.18;3.33;;;;;;;14.10;100.00;100781.66;6401056;23;20008;-82
2021/09/26 01:22:19;;;;;;;5.72;3.75;;;;;;;14.11;100.00;100782.53;6413435;23;20012;-82
2021/09/26 01:25:12;;;;;;;4.38;3.40;;;;;;;13.98;100.00;100789.28;6401366;23;20028;-82
2021/09/26 01:28:10;;;;;;;6.95;4.00;;;;;;;13.96;100.00;100789.38;6400566;23;20004;-81
2021/09/26 01:30:47;;;;;;;4.40;3.40;;;;;;;13.98;100.00;100791.91;6401205;23;20084;-81
2021/09/26 01:33:39;;;;;;;5.55;3.75;;;;;;;13.93;100.00;100796.53;6401334;23;20066;-82
2021/09/26 01:36:19;;;;;;;6.40;3.65;;;;;;;13.97;100.00;100787.56;6401454;23;20005;-81
2021/09/26 01:39:06;;;;;;;5.50;3.33;;;;;;;14.17;100.00;100790.16;6400769;23;20016;-81
2021/09/26 01:42:04;;;;;;;5.57;3.53;;;;;;;14.22;100.00;100788.19;6417884;23;20438;-81
2021/09/26 01:44:46;;;;;;;5.93;3.90;;;;;;;14.23;100.00;100793.34;6404842;23;20004;-81
2021/09/26 01:47:20;;;;;;;7.38;3.80;;;;;;;14.18;100.00;100787.47;6403877;23;20012;-81
2021/09/26 01:49:59;;;;;;;5.93;4.15;;;;;;;14.30;100.00;100788.66;6417207;23;20015;-82
2021/09/26 01:52:36;;;;;;;5.93;3.97;;;;;;;14.30;100.00;100788.66;6405207;23;20054;-81
2021/09/26 01:55:08;;;;;;;6.30;4.32;;;;;;;14.23;100.00;100776.75;6405086;23;20005;-82
2021/09/26 01:57:40;;;;;;;6.70;4.90;;;;;;;14.14;100.00;100782.38;6403954;23;20001;-82
2021/09/26 02:00:11;;;;;;;7.05;4.55;;;;;;;14.09;100.00;100785.22;6404299;23;20009;-82
2021/09/26 02:02:43;;;;;;;7.93;4.32;;;;;;;14.01;100.00;100773.34;6415816;23;20001;-82
2021/09/26 02:05:13;;;;;;;8.10;4.68;;;;;;;13.94;100.00;100780.66;6412278;23;20012;-82
2021/09/26 02:07:46;;;;;;;7.75;4.90;;;;;;;13.85;100.00;100775.84;6401880;23;20001;-81
2021/09/26 02:10:22;;;;;;;6.30;4.30;;;;;;;13.83;100.00;100779.47;6415340;23;20056;-82
2021/09/26 02:12:53;;;;;;;6.00;4.45;;;;;;;13.81;100.00;100768.16;6405340;23;19997;-81
2021/09/26 02:15:25;;;;;;;7.32;4.85;;;;;;;13.79;100.00;100773.50;6407842;23;20004;-82
2021/09/26 02:17:58;;;;;;;6.97;4.28;;;;;;;13.79;100.00;100776.13;6417645;23;20422;-82
2021/09/26 02:20:29;;;;;;;6.30;4.53;;;;;;;13.75;100.00;100774.56;6406524;23;20048;-82
2021/09/26 02:22:59;;;;;;;8.05;5.20;;;;;;;13.75;100.00;100769.28;6405731;23;20012;-82
2021/09/26 02:25:30;;;;;;;7.93;5.25;;;;;;;13.68;100.00;100772.28;6406687;23;20013;-82
2021/09/26 02:28:02;;;;;;;8.50;5.35;;;;;;;13.67;100.00;100770.56;6408376;23;20201;-82
2021/09/26 02:30:33;;;;;;;7.65;4.93;;;;;;;13.71;100.00;100780.88;6408216;23;20001;-82
2021/09/26 02:33:03;;;;;;;7.43;4.35;;;;;;;13.69;100.00;100774.84;6407067;23;20139;-81
2021/09/26 02:35:34;;;;;;;5.32;3.47;;;;;;;13.65;100.00;100772.41;6419162;23;20008;-81
2021/09/26 02:38:04;;;;;;;4.65;3.08;;;;;;;13.67;100.00;100771.44;6406731;23;20005;-82
2021/09/26 02:40:35;;;;;;;4.63;3.45;;;;;;;13.61;100.00;100776.09;6417904;23;19997;-81
2021/09/26 02:43:23;;;;;;;5.35;3.47;;;;;;;13.52;100.00;100776.50;6406837;23;20097;-81
2021/09/26 02:46:08;;;;;;;4.50;3.40;;;;;;;13.51;100.00;100777.41;6406409;23;20075;-82
2021/09/26 02:48:39;;;;;;;6.07;3.50;;;;;;;13.49;100.00;100771.38;6406006;23;20011;-81
2021/09/26 02:51:11;;;;;;;4.50;3.03;;;;;;;13.38;100.00;100776.28;6405915;23;20076;-81
2021/09/26 02:53:42;;;;;;;5.93;3.67;;;;;;;13.39;100.00;100772.72;6404308;23;20027;-80
2021/09/26 02:56:13;;;;;;;5.88;3.80;;;;;;;13.35;100.00;100768.50;6405528;23;20009;-82
2021/09/26 02:58:43;;;;;;;6.78;4.63;;;;;;;13.46;100.00;100767.16;6417856;23;19997;-81
2021/09/26 03:01:13;;;;;;;5.88;3.80;;;;;;;13.41;100.00;100768.25;6402558;23;20004;-81
2021/09/26 03:03:43;;;;;;;6.30;4.25;;;;;;;13.27;100.00;100754.88;6401515;23;20438;-82
2021/09/26 03:06:14;;;;;;;7.57;4.18;;;;;;;13.18;100.00;100761.38;6401955;23;20004;-81
2021/09/26 03:08:44;;;;;;;5.97;3.97;;;;;;;13.07;100.00;100750.47;6401775;23;20001;-81
2021/09/26 03:11:14;;;;;;;5.78;4.15;;;;;;;13.02;100.00;100747.22;6415129;23;20001;-82
2021/09/26 03:13:45;;;;;;;6.63;4.40;;;;;;;13.01;100.00;100742.00;6402875;23;20036;-82
2021/09/26 03:16:15;;;;;;;6.53;4.35;;;;;;;12.87;100.00;100733.88;6413653;23;19998;-81
2021/09/26 03:18:46;;;;;;;6.35;4.40;;;;;;;13.03;100.00;100743.66;6413726;23;20314;-81
2021/09/26 03:21:17;;;;;;;9.77;6.45;;;;;;;13.04;100.00;100755.88;6377497;23;20059;-82
2021/09/26 03:23:47;;;;;;;14.90;9.00;;;;;;;13.08;100.00;100748.72;6413313;23;20009;-81
2021/09/26 03:26:18;;;;;;;16.17;9.73;;;;;;;13.14;100.00;100751.94;6416489;23;20000;-81
2021/09/26 03:28:48;;;;;;;11.60;7.00;;;;;;;13.27;100.00;100747.00;6402734;23;20001;-81
2021/09/26 03:31:19;;;;;;;17.45;9.50;;;;;;;13.30;100.00;100737.22;6402021;23;20012;-82
2021/09/26 03:33:53;;;;;;;9.90;6.53;;;;;;;13.38;100.00;100742.97;6402375;23;20005;-81
2021/09/26 03:36:24;;;;;;;14.40;8.18;;;;;;;13.33;100.00;100739.72;6413863;23;20150;-82
2021/09/26 03:38:54;;;;;;;17.58;9.98;;;;;;;13.30;100.00;100731.13;6400048;23;20172;-82
2021/09/26 03:41:24;;;;;;;11.88;6.80;;;;;;;13.31;100.00;100730.19;6401458;23;19997;-82
2021/09/26 03:43:55;;;;;;;8.45;6.25;;;;;;;13.21;100.00;100731.53;6412971;23;20105;-82
2021/09/26 03:46:25;;;;;;;9.77;6.20;;;;;;;13.23;100.00;100727.06;6400910;23;20012;-82
2021/09/26 03:48:55;;;;;;;10.35;6.78;;;;;;;13.14;100.00;100720.44;6401274;23;20009;-82
2021/09/26 03:51:27;;;;;;;8.05;5.65;;;;;;;13.14;100.00;100711.72;6412566;23;20229;-81
2021/09/26 03:53:58;;;;;;;9.48;6.10;;;;;;;13.13;100.00;100720.50;6400952;23;20024;-82
2021/09/26 03:56:28;;;;;;;9.05;5.70;;;;;;;13.16;100.00;100725.63;6400339;23;20059;-81
2021/09/26 03:58:59;;;;;;;8.38;5.53;;;;;;;13.15;100.00;100718.66;6401919;23;20454;-82
2021/09/26 04:01:29;;;;;;;10.30;5.50;;;;;;;13.19;100.00;100713.22;6401733;23;20005;-82
2021/09/26 04:03:59;;;;;;;9.40;5.40;;;;;;;13.20;100.00;100716.72;6402672;23;20009;-83
2021/09/26 04:06:30;;;;;;;9.40;5.70;;;;;;;13.29;100.00;100705.78;6403083;23;20013;-82
2021/09/26 04:09:01;;;;;;;7.15;5.20;;;;;;;13.20;100.00;100706.22;6401787;23;20065;-82
2021/09/26 04:11:31;;;;;;;7.68;4.60;;;;;;;13.24;100.00;100708.59;6402369;23;20005;-81
2021/09/26 04:14:03;;;;;;;10.63;5.45;;;;;;;13.23;100.00;100720.03;6402932;23;20330;-82
2021/09/26 04:16:33;;;;;;;7.55;4.63;;;;;;;13.27;100.00;100705.00;6402858;23;20087;-82
2021/09/26 04:19:04;;;;;;;6.88;4.95;;;;;;;13.23;100.00;100703.44;6401591;23;20008;-82
2021/09/26 04:21:34;;;;;;;8.23;5.30;;;;;;;13.24;100.00;100702.53;6401047;23;20083;-82
2021/09/26 04:24:05;;;;;;;8.05;5.25;;;;;;;13.28;100.00;100704.09;6413102;23;19997;-82
2021/09/26 04:26:35;;;;;;;7.88;5.50;;;;;;;13.34;100.00;100706.44;6401850;23;20005;-83
2021/09/26 04:29:06;;;;;;;10.35;5.45;;;;;;;13.42;100.00;100706.94;6413090;23;19997;-81
2021/09/26 04:31:36;;;;;;;8.13;4.97;;;;;;;13.54;100.00;100707.25;6413521;23;20008;-82
2021/09/26 04:34:07;;;;;;;8.95;5.65;;;;;;;13.66;100.00;100709.31;6400323;23;19997;-82
2021/09/26 04:36:37;;;;;;;7.78;5.28;;;;;;;13.75;100.00;100705.41;6400514;23;20001;-82
2021/09/26 04:39:08;;;;;;;8.05;5.57;;;;;;;13.93;100.00;100707.19;6401050;23;20078;-83
2021/09/26 04:41:38;;;;;;;8.15;6.00;;;;;;;14.01;100.00;100705.03;6413567;23;20213;-81
2021/09/26 04:44:11;;;;;;;9.55;6.38;;;;;;;14.05;100.00;100714.50;6401957;23;20008;-81
2021/09/26 04:46:41;;;;;;;10.98;6.07;;;;;;;14.15;100.00;100707.84;6400612;23;20028;-82
2021/09/26 04:49:13;;;;;;;8.27;5.93;;;;;;;14.21;100.00;100704.97;6413032;23;20001;-82
2021/09/26 04:51:44;;;;;;;10.98;6.90;;;;;;;14.14;100.00;100709.66;6399892;23;20001;-82
2021/09/26 04:54:14;;;;;;;10.25;6.72;;;;;;;14.16;100.00;100709.59;6399224;23;20011;-81
2021/09/26 04:56:44;;;;;;;11.52;7.22;;;;;;;14.15;100.00;100708.72;6400550;23;20425;-82
2021/09/26 04:59:15;;;;;;;12.73;7.70;;;;;;;14.18;100.00;100708.59;6398991;23;20060;-81
2021/09/26 05:01:45;;;;;;;10.52;7.53;;;;;;;14.19;100.00;100712.94;6400304;23;20012;-81
2021/09/26 05:04:16;;;;;;;13.77;7.97;;;;;;;14.36;100.00;100710.34;6401247;23;20191;-81
2021/09/26 05:06:46;;;;;;;14.70;8.70;;;;;;;14.31;100.00;100699.22;6413431;23;20001;-81
2021/09/26 05:09:16;;;;;;;13.60;9.02;;;;;;;14.36;100.00;100694.56;6411631;23;20001;-82
2021/09/26 05:11:46;;;;;;;13.98;9.70;;;;;;;14.41;100.00;100699.59;6401338;23;20247;-81
2021/09/26 05:14:17;;;;;;;14.95;9.20;;;;;;;14.41;100.00;100700.44;6413074;23;20040;-81
2021/09/26 05:16:48;;;;;;;16.40;9.97;;;;;;;14.42;100.00;100703.94;6412492;23;20032;-81
2021/09/26 05:19:18;;;;;;;15.25;10.15;;;;;;;14.48;100.00;100695.75;6413598;23;20232;-81
2021/09/26 05:21:48;;;;;;;14.05;9.80;;;;;;;14.45;100.00;100709.03;6401345;23;20047;-81
2021/09/26 05:24:19;;;;;;;16.55;10.93;;;;;;;14.47;100.00;100702.78;6401649;23;20009;-82
2021/09/26 05:26:49;;;;;;;18.98;10.77;;;;;;;14.44;100.00;100700.28;6414207;23;19993;-81
2021/09/26 05:29:20;;;;;;;22.08;12.55;;;;;;;14.56;100.00;100691.81;6399522;23;20013;-81
2021/09/26 05:31:50;;;;;;;19.60;12.65;;;;;;;14.62;100.00;100695.91;6402138;23;20175;-81
2021/09/26 05:34:20;;;;;;;17.50;11.07;;;;;;;14.69;100.00;100702.56;6402198;23;20087;-81
2021/09/26 05:36:51;;;;;;;17.00;11.50;;;;;;;14.79;100.00;100695.91;6402371;23;20008;-81
2021/09/26 05:39:21;;;;;;;17.73;12.23;;;;;;;14.76;100.00;100693.44;6414117;23;20076;-81
2021/09/26 05:41:53;;;;;;;18.67;11.38;;;;;;;14.86;100.00;100692.91;6400749;23;20005;-81
2021/09/26 05:44:23;;;;;;;19.08;12.30;;;;;;;14.86;100.00;100701.63;6401391;23;20012;-81
2021/09/26 05:46:53;;;;;;;21.27;13.80;;;;;;;14.91;100.00;100698.75;6400298;23;20001;-82
2021/09/26 05:49:24;;;;;;;20.75;12.48;;;;;;;15.01;100.00;100705.28;6402838;23;20008;-82
2021/09/26 05:51:54;;;;;;;22.13;13.80;;;;;;;15.07;100.00;100697.91;6401650;23;20064;-82
2021/09/26 05:54:24;;;;;;;19.13;13.38;;;;;;;15.17;100.00;100699.13;6402351;23;19997;-81
2021/09/26 05:56:55;;;;;;;21.17;13.20;;;;;;;15.25;100.00;100694.31;6401185;23;20012;-82
2021/09/26 05:59:25;;;;;;;20.48;14.10;;;;;;;15.26;100.00;100696.03;6401162;23;20008;-82
2021/09/26 06:01:55;;;;;;;20.45;14.02;;;;;;;15.36;100.00;100696.41;6414054;23;20075;-81
2021/09/26 06:04:26;;;;;;;20.40;13.70;;;;;;;15.36;100.00;100696.41;6401579;23;20032;-82
2021/09/26 06:06:56;;;;;;;22.65;13.98;;;;;;;15.28;100.00;100699.41;6402166;23;20016;-82
2021/09/26 06:09:26;;;;;;;20.13;12.95;;;;;;;15.35;100.00;100694.72;6402535;23;20001;-82
2021/09/26 06:11:57;;;;;;;22.45;13.80;;;;;;;15.38;100.00;100690.13;6413958;23;20202;-81
2021/09/26 06:14:27;;;;;;;19.10;13.07;;;;;;;15.41;100.00;100694.38;6402908;23;20011;-81
2021/09/26 06:16:57;;;;;;;22.73;14.25;;;;;;;15.41;100.00;100697.88;6414608;23;20054;-81
2021/09/26 06:19:28;;;;;;;21.88;13.88;;;;;;;15.47;100.00;100694.91;6403622;23;19997;-81
2021/09/26 06:21:59;;;;;;;22.52;13.82;;;;;;;15.50;100.00;100692.09;6415918;23;20049;-81
2021/09/26 06:24:29;;;;;;;20.08;13.40;;;;;;;15.63;100.00;100690.50;6403822;23;20009;-81
2021/09/26 06:26:59;;;;;;;19.38;14.10;;;;;;;15.70;100.00;100694.50;6404416;23;20079;-81
2021/09/26 06:29:30;;;;;;;19.98;13.35;;;;;;;15.74;100.00;100695.19;6414629;23;20040;-81
2021/09/26 06:32:00;;;;;;;20.10;13.90;;;;;;;15.72;100.00;100695.25;6412930;23;20222;-82
2021/09/26 06:34:30;;;;;;;20.03;14.23;;;;;;;15.78;100.00;100700.22;6413985;23;20050;-81
2021/09/26 06:37:01;;;;;;;18.00;13.30;;;;;;;15.93;100.00;100694.09;6412712;23;20751;-81
2021/09/26 06:39:32;;;;;;;21.25;14.55;;;;;;;16.04;100.00;100696.97;6402271;23;20055;-82
2021/09/26 06:42:06;;;;;;;21.77;14.55;;;;;;;15.97;100.00;100698.28;6413421;23;20005;-81
2021/09/26 06:44:36;;;;;;;23.83;15.10;;;;;;;16.13;100.00;100693.84;6400342;23;20444;-81
2021/09/26 06:47:07;;;;;;;19.95;13.40;;;;;;;16.24;100.00;100695.88;6402683;23;20036;-81
2021/09/26 06:49:37;;;;;;;22.73;15.73;;;;;;;16.31;100.00;100694.56;6402196;23;20011;-81
2021/09/26 06:52:08;;;;;;;20.75;14.07;;;;;;;16.39;100.00;100701.16;6415427;23;20004;-81
2021/09/26 06:54:38;;;;;;;21.35;14.70;;;;;;;16.43;100.00;100691.28;6414124;23;19996;-82
2021/09/26 06:57:09;;;;;;;20.05;14.18;;;;;;;16.57;100.00;100686.06;6402689;23;20031;-82
2021/09/26 06:59:39;;;;;;;22.80;15.93;;;;;;;16.69;100.00;100685.34;6403084;23;20005;-81
2021/09/26 07:02:10;;;;;;;24.85;15.38;;;;;;;16.88;100.00;100692.06;6414918;23;20031;-82
2021/09/26 07:04:40;;;;;;;23.10;14.75;;;;;;;16.85;100.00;100684.34;6415476;23;20429;-81
2021/09/26 07:07:11;;;;;;;25.20;15.60;;;;;;;16.88;100.00;100681.50;6415417;23;20079;-81
2021/09/26 07:09:42;;;;;;;25.35;16.23;;;;;;;17.11;100.00;100688.94;6403588;23;20269;-81
2021/09/26 07:12:13;;;;;;;21.88;15.70;;;;;;;17.17;100.00;100694.66;6405420;23;20004;-79
2021/09/26 07:14:45;;;;;;;24.55;17.63;;;;;;;17.26;100.00;100687.97;6403148;23;20463;-80
2021/09/26 07:17:17;;;;;;;168.18;91.28;;;;;;;17.44;100.00;100681.59;6414337;23;20001;-80
2021/09/26 07:19:47;;;;;;;46.88;29.83;;;;;;;17.59;100.00;100686.78;6414518;23;20009;-81
2021/09/26 07:22:23;;;;;;;35.60;22.75;;;;;;;17.66;100.00;100688.09;6402712;23;20011;-82
2021/09/26 07:24:54;;;;;;;20.38;13.82;;;;;;;17.72;100.00;100693.00;6414387;23;20000;-81
2021/09/26 07:27:25;;;;;;;20.85;14.82;;;;;;;17.77;100.00;100690.91;6404442;23;20004;-82
2021/09/26 07:29:56;;;;;;;17.45;12.25;;;;;;;17.74;100.00;100699.06;6397915;23;20306;-81
2021/09/26 07:32:27;;;;;;;20.30;12.38;;;;;;;17.87;100.00;100701.75;6413883;23;20028;-81
2021/09/26 07:34:57;;;;;;;16.25;11.00;;;;;;;18.30;100.00;100696.28;6412808;23;20067;-82
2021/09/26 07:37:27;;;;;;;14.73;11.10;;;;;;;18.78;100.00;100696.53;6401897;23;20428;-81
2021/09/26 07:40:01;;;;;;;15.00;9.67;;;;;;;19.53;100.00;100699.28;6403621;23;20005;-82
2021/09/26 07:42:31;;;;;;;12.93;9.75;;;;;;;19.23;100.00;100701.41;6400515;23;20260;-82
2021/09/26 07:45:03;;;;;;;13.00;9.02;;;;;;;20.16;98.54;100697.34;6398183;23;20013;-82
2021/09/26 07:47:34;;;;;;;13.07;9.38;;;;;;;20.67;97.80;100701.47;6400145;23;20009;-82
2021/09/26 07:50:05;;;;;;;12.73;9.40;;;;;;;20.37;96.10;100705.53;6400885;23;20092;-82
2021/09/26 07:52:36;;;;;;;13.60;8.65;;;;;;;20.04;98.05;100708.00;6401208;23;20280;-81
2021/09/26 07:55:07;;;;;;;12.25;9.23;;;;;;;20.18;97.42;100703.41;6400640;23;20031;-82
2021/09/26 07:57:37;;;;;;;13.57;9.80;;;;;;;19.52;100.00;100704.69;6413667;23;20214;-82
2021/09/26 08:00:08;;;;;;;13.07;9.10;;;;;;;19.35;100.00;100695.25;6402198;23;20008;-81
2021/09/26 08:02:39;;;;;;;11.75;8.68;;;;;;;19.10;100.00;100689.06;6401905;23;20239;-82
2021/09/26 08:05:11;;;;;;;14.38;9.50;;;;;;;19.08;100.00;100691.00;6400765;23;20001;-82
2021/09/26 08:07:41;;;;;;;11.48;9.48;;;;;;;18.98;100.00;100706.66;6400605;23;20009;-82
2021/09/26 08:10:11;;;;;;;13.90;9.45;;;;;;;18.84;100.00;100709.38;6401538;23;20070;-82
2021/09/26 08:12:42;;;;;;;13.88;9.98;;;;;;;18.69;100.00;100706.91;6400076;23;20032;-81
2021/09/26 08:15:12;;;;;;;12.23;9.20;;;;;;;18.99;100.00;100708.34;6412909;23;20004;-82
2021/09/26 08:17:43;;;;;;;14.07;9.82;;;;;;;18.89;100.00;100709.91;6413120;23;20009;-81
2021/09/26 08:20:13;;;;;;;11.73;9.13;;;;;;;19.39;100.00;100704.69;6412496;23;20001;-82
2021/09/26 08:22:44;;;;;;;11.30;8.77;;;;;;;20.17;98.71;100701.72;6400495;23;20005;-82
2021/09/26 08:25:15;;;;;;;14.60;8.27;;;;;;;21.14;93.51;100702.25;6411451;23;20005;-82
2021/09/26 08:27:45;;;;;;;11.52;8.30;;;;;;;21.49;90.47;100696.84;6398927;23;19997;-82
2021/09/26 08:30:18;;;;;;;10.23;6.97;;;;;;;21.05;93.29;100705.59;6399877;23;20004;-82
2021/09/26 08:32:48;;;;;;;11.20;7.93;;;;;;;20.59;96.80;100706.50;6398072;23;20008;-82
2021/09/26 08:35:19;;;;;;;12.15;8.48;;;;;;;20.45;97.41;100717.31;6399389;23;20039;-82
2021/09/26 08:37:50;;;;;;;12.43;8.60;;;;;;;20.37;97.50;100711.72;6397455;23;20005;-82
2021/09/26 08:40:20;;;;;;;10.40;8.45;;;;;;;20.30;97.26;100718.41;6396622;23;20091;-82
2021/09/26 08:42:51;;;;;;;11.07;8.32;;;;;;;20.55;94.39;100713.03;6409369;23;20085;-82
2021/09/26 08:45:21;;;;;;;10.05;7.60;;;;;;;20.82;93.72;100710.94;6398167;23;20019;-82
2021/09/26 08:47:52;;;;;;;9.63;7.30;;;;;;;21.22;92.02;100704.31;6399528;23;20004;-81
2021/09/26 08:50:23;;;;;;;9.82;6.57;;;;;;;22.36;88.17;100713.72;6410764;23;20000;-82
2021/09/26 08:52:53;;;;;;;8.20;6.30;;;;;;;22.23;87.19;100707.72;6411736;23;20052;-81
2021/09/26 08:55:24;;;;;;;9.35;5.95;;;;;;;23.11;82.18;100711.75;6399200;23;20005;-82
2021/09/26 08:57:54;;;;;;;6.93;4.95;;;;;;;23.96;80.69;100703.38;6410228;23;20028;-82
2021/09/26 09:00:28;;;;;;;6.75;4.70;;;;;;;23.94;77.62;100697.31;6410396;23;20005;-81
2021/09/26 09:03:00;;;;;;;5.97;4.07;;;;;;;23.95;77.96;100693.66;6400408;23;20066;-81
2021/09/26 09:05:38;;;;;;;6.68;4.07;;;;;;;24.36;78.22;100698.81;6401026;23;20005;-83
2021/09/26 09:08:10;;;;;;;6.28;3.90;;;;;;;24.06;78.43;100698.06;6406876;23;19997;-80
2021/09/26 09:10:58;;;;;;;7.90;4.40;;;;;;;23.98;77.14;100704.06;6396525;23;20505;-81
2021/09/26 09:14:06;;;;;;;6.78;4.25;;;;;;;23.67;79.28;100710.38;6407949;23;20001;-82
2021/09/26 09:16:40;;;;;;;5.68;4.13;;;;;;;23.58;79.46;100713.00;6400023;23;20024;-82
2021/09/26 09:19:21;;;;;;;5.90;3.95;;;;;;;23.43;77.58;100703.66;6409444;23;20167;-82
2021/09/26 09:22:06;;;;;;;6.68;3.88;;;;;;;23.73;79.07;100698.34;6395267;23;20015;-81
2021/09/26 09:24:39;;;;;;;7.13;3.80;;;;;;;24.02;78.35;100694.81;6395927;23;20004;-81
2021/09/26 09:27:10;;;;;;;5.63;3.83;;;;;;;23.40;80.52;100694.09;6405014;23;20012;-82
2021/09/26 09:29:43;;;;;;;6.10;3.90;;;;;;;23.72;79.15;100691.31;6398769;23;20001;-82
2021/09/26 09:32:16;;;;;;;7.57;4.00;;;;;;;23.49;77.68;100690.63;6403790;23;20139;-81
2021/09/26 09:34:47;;;;;;;5.97;3.90;;;;;;;23.74;79.64;100692.00;6410126;23;20001;-82
2021/09/26 09:37:23;;;;;;;5.57;3.75;;;;;;;23.59;76.88;100699.53;6395179;23;20252;-81
2021/09/26 09:40:11;;;;;;;5.88;4.10;;;;;;;23.23;77.85;100686.69;6397032;23;20036;-81
2021/09/26 09:42:44;;;;;;;4.90;3.95;;;;;;;23.17;81.05;100684.56;6402303;23;20028;-81
2021/09/26 09:45:20;;;;;;;5.28;3.85;;;;;;;23.55;80.62;100681.25;6404685;23;20342;-82
2021/09/26 09:48:08;;;;;;;4.63;3.47;;;;;;;23.48;78.57;100678.28;6401441;23;20060;-82
2021/09/26 09:51:08;;;;;;;5.32;3.35;;;;;;;23.59;76.99;100682.66;6407366;23;20337;-81
2021/09/26 09:53:45;;;;;;;4.53;3.28;;;;;;;23.71;76.23;100687.78;6390278;23;20019;-81
2021/09/26 09:56:20;;;;;;;5.68;3.20;;;;;;;23.57;80.25;100680.13;6393647;23;20005;-82
2021/09/26 09:58:51;;;;;;;4.53;3.20;;;;;;;23.60;77.47;100684.34;6391229;23;20349;-81
2021/09/26 10:01:27;;;;;;;4.75;3.38;;;;;;;23.64;77.11;100677.75;6401132;23;20244;-80
2021/09/26 10:04:03;;;;;;;5.15;3.25;;;;;;;23.62;77.09;100672.59;6390130;23;20016;-80
2021/09/26 10:06:38;;;;;;;5.45;3.10;;;;;;;23.79;78.88;100671.94;6401832;23;20342;-80
2021/09/26 10:09:14;;;;;;;4.57;3.00;;;;;;;23.48;79.06;100675.59;6385815;23;20337;-80
2021/09/26 10:11:49;;;;;;;4.95;2.80;;;;;;;23.77;76.92;100668.56;6402391;23;20080;-80
2021/09/26 10:14:26;;;;;;;23.73;13.57;;;;;;;23.52;78.14;100676.19;6389315;23;20268;-80
2021/09/26 10:16:58;;;;;;;12.07;7.03;;;;;;;23.83;78.16;100669.84;6388692;23;20054;-80
2021/09/26 10:19:31;;;;;;;5.85;4.15;;;;;;;23.87;77.78;100673.97;6389467;23;20376;-80
2021/09/26 10:22:02;;;;;;;4.82;3.03;;;;;;;23.80;78.93;100668.28;6389532;23;20019;-80
2021/09/26 10:24:35;;;;;;;6.22;3.33;;;;;;;23.70;78.97;100674.56;6393391;23;20100;-80
2021/09/26 10:27:08;;;;;;;6.07;3.65;;;;;;;23.63;77.01;100676.06;6400333;23;20008;-80
2021/09/26 10:29:41;;;;;;;4.93;3.40;;;;;;;23.62;77.14;100685.94;6393241;23;20001;-80
2021/09/26 10:32:11;;;;;;;5.32;3.20;;;;;;;23.79;78.29;100679.09;6402225;23;20009;-80
2021/09/26 10:34:42;;;;;;;4.20;3.28;;;;;;;23.63;78.28;100676.94;6388724;23;20009;-81
2021/09/26 10:39:54;;;;;;;4.35;3.03;;;;;;;23.62;79.99;100669.06;6417189;23;20166;-77
2021/09/26 10:42:25;;;;;;;5.28;3.33;;;;;;;23.79;77.69;100676.41;6428167;23;20016;-78
2021/09/26 10:45:02;;;;;;;5.43;3.28;;;;;;;23.84;79.87;100659.06;6420631;23;20436;-77
2021/09/26 10:47:35;;;;;;;4.30;2.85;;;;;;;23.96;80.39;100660.63;6427982;23;20024;-77
2021/09/26 10:50:08;;;;;;;4.78;3.40;;;;;;;23.94;77.13;100665.28;6420707;23;20013;-77
2021/09/26 10:52:44;;;;;;;5.18;3.20;;;;;;;23.84;78.18;100663.56;6429541;23;20012;-79
2021/09/26 10:55:14;;;;;;;4.07;2.95;;;;;;;23.96;79.58;100652.63;6421133;23;20387;-87
2021/09/26 10:57:46;;;;;;;4.97;3.03;;;;;;;24.01;79.05;100665.56;6429893;23;20087;-82
2021/09/26 11:00:41;;;;;;;3.72;3.00;;;;;;;24.17;78.52;100661.38;6423397;23;20005;-79
2021/09/26 11:03:13;;;;;;;4.82;3.15;;;;;;;24.10;77.89;100665.59;6428390;23;20000;-79
2021/09/26 11:05:51;;;;;;;3.40;2.63;;;;;;;24.21;79.16;100656.59;6421617;23;20015;-79
2021/09/26 11:08:24;;;;;;;5.60;3.10;;;;;;;24.29;78.33;100660.28;6423954;23;20008;-79
2021/09/26 11:10:57;;;;;;;4.10;3.17;;;;;;;24.27;80.13;100651.56;6391491;23;20012;-79
2021/09/26 11:13:30;;;;;;;5.68;3.40;;;;;;;24.22;77.77;100648.44;6428300;23;20336;-80
2021/09/26 11:16:02;;;;;;;4.15;2.70;;;;;;;24.14;80.18;100656.31;6418211;23;20012;-80
2021/09/26 11:18:49;;;;;;;4.20;2.88;;;;;;;24.17;80.54;100655.16;6426939;23;20016;-80
2021/09/26 11:21:38;;;;;;;3.45;2.60;;;;;;;24.17;80.65;100658.69;6418687;23;20035;-80
2021/09/26 11:24:20;;;;;;;5.68;3.00;;;;;;;24.04;81.67;100650.09;6427366;23;20364;-82
2021/09/26 11:27:00;;;;;;;5.80;3.00;;;;;;;23.96;80.57;100652.63;6391264;23;20011;-81
2021/09/26 11:29:39;;;;;;;5.15;2.97;;;;;;;24.06;79.92;100653.47;6390279;23;20011;-80
2021/09/26 11:32:18;;;;;;;5.15;3.45;;;;;;;24.11;81.26;100650.41;6418320;23;20012;-81
2021/09/26 11:34:52;;;;;;;4.97;3.08;;;;;;;24.29;79.07;100638.91;6428690;23;20078;-80
2021/09/26 11:37:34;;;;;;;5.18;3.03;;;;;;;24.29;79.30;100638.03;6418676;23;20016;-80
2021/09/26 11:40:14;;;;;;;5.00;3.03;;;;;;;24.48;78.96;100644.25;6390614;23;20420;-80
2021/09/26 11:42:51;;;;;;;4.70;2.58;;;;;;;24.46;80.83;100638.19;6428273;23;20014;-83
2021/09/26 11:45:32;;;;;;;4.28;2.97;;;;;;;24.51;80.12;100638.63;6426760;23;20007;-86